Terminal Aerodrome Forecast
Issued by NWS

Home | Current Version | Previous Version | Text Only | Print | Product List | Glossary On
Versions: 1 2 3 4 5 6 7 8 9 10 11 12 13
000
FTUS45 KABQ 011138
TAFFMN
TAF
KFMN 011138Z 0112/0212 08006KT P6SM VCSH SCT050 BKN100
      TEMPO 0112/0114 BKN035
     FM011700 16006KT P6SM SCT070 SCT130
     FM012100 26006KT P6SM VCTS SCT060CB BKN100
     FM020200 09008KT P6SM VCSH SCT060 BKN090=

USA.gov is the U.S. government's official web portal to all federal, state and local government web resources and services.